Time;durP1;ratioP1;P1;durP2;ratioP2;P2;SDS_P1;SDS_P2;PMS_P1;PMS_P2;Temp;Humidity;BMP_temperature;BMP_pressure;BME280_temperature;BME280_humidity;BME280_pressure;Samples;Min_cycle;Max_cycle;Signal;HPM_P1;HPM_P2
2021/11/24 00:00:49;;;;;;;15.90;10.73;;;;;;;;;;5051892;28;20199;-65
2021/11/24 00:03:21;;;;;;;14.48;10.80;;;;;;;;;;5053166;28;20179;-65
2021/11/24 00:05:49;;;;;;;13.77;10.57;;;;;;;;;;5065558;28;20225;-65
2021/11/24 00:08:19;;;;;;;17.38;12.00;;;;;;;;;;5069119;28;20322;-66
2021/11/24 00:10:50;;;;;;;14.88;10.85;;;;;;;;;;5069649;28;20260;-65
2021/11/24 00:13:24;;;;;;;18.45;10.40;;;;;;;;;;5064786;28;20567;-65
2021/11/24 00:15:52;;;;;;;15.65;11.70;;;;;;;;;;5069436;28;20649;-66
2021/11/24 00:18:22;;;;;;;14.45;10.52;;;;;;;;;;5068699;28;20193;-65
2021/11/24 00:20:50;;;;;;;14.77;10.45;;;;;;;;;;5065787;28;20190;-66
2021/11/24 00:23:21;;;;;;;17.00;12.18;;;;;;;;;;5069201;28;20190;-65
2021/11/24 00:25:49;;;;;;;16.45;10.43;;;;;;;;;;5068904;28;20255;-66
2021/11/24 00:28:19;;;;;;;15.27;11.07;;;;;;;;;;5068929;28;20685;-65
2021/11/24 00:30:49;;;;;;;14.88;10.95;;;;;;;;;;5069352;28;21246;-65
2021/11/24 00:33:19;;;;;;;17.02;11.07;;;;;;;;;;5068822;28;20178;-66
2021/11/24 00:35:49;;;;;;;15.55;10.27;;;;;;;;;;5069234;28;20688;-66
2021/11/24 00:38:17;;;;;;;15.70;12.13;;;;;;;;;;5069140;28;20205;-65
2021/11/24 00:40:48;;;;;;;16.85;11.48;;;;;;;;;;5052423;28;20573;-65
2021/11/24 00:43:21;;;;;;;19.15;11.32;;;;;;;;;;5065167;28;20190;-65
2021/11/24 00:45:48;;;;;;;14.10;9.77;;;;;;;;;;5069291;28;20239;-70
2021/11/24 00:48:22;;;;;;;15.88;11.30;;;;;;;;;;5067713;28;20294;-66
2021/11/24 00:50:50;;;;;;;16.00;11.35;;;;;;;;;;5055544;28;20195;-65
2021/11/24 00:53:18;;;;;;;16.02;11.75;;;;;;;;;;5051473;28;20254;-65
2021/11/24 00:55:48;;;;;;;14.40;11.18;;;;;;;;;;5059674;28;20186;-66
2021/11/24 00:58:17;;;;;;;14.60;10.55;;;;;;;;;;5059546;28;20187;-65
2021/11/24 01:00:47;;;;;;;17.67;11.90;;;;;;;;;;5053586;28;20585;-64
2021/11/24 01:03:17;;;;;;;17.50;12.30;;;;;;;;;;5052163;28;20191;-65
2021/11/24 01:05:47;;;;;;;18.10;11.18;;;;;;;;;;5064610;28;20190;-66
2021/11/24 01:08:15;;;;;;;14.55;11.18;;;;;;;;;;5057740;28;20241;-65
2021/11/24 01:10:43;;;;;;;15.13;9.98;;;;;;;;;;5056016;28;20199;-65
2021/11/24 01:13:13;;;;;;;16.13;11.27;;;;;;;;;;5055111;28;21057;-65
2021/11/24 01:15:46;;;;;;;20.23;12.50;;;;;;;;;;5055367;28;20587;-66
2021/11/24 01:18:13;;;;;;;20.10;12.43;;;;;;;;;;5060727;28;20190;-65
2021/11/24 01:20:46;;;;;;;17.92;11.98;;;;;;;;;;5074870;28;20183;-65
2021/11/24 01:23:15;;;;;;;17.05;12.23;;;;;;;;;;5075491;28;20200;-65
2021/11/24 01:25:43;;;;;;;15.70;10.63;;;;;;;;;;5075116;28;20267;-65
2021/11/24 01:28:12;;;;;;;18.75;12.48;;;;;;;;;;5074396;28;20218;-65
2021/11/24 01:30:40;;;;;;;18.33;11.63;;;;;;;;;;5075230;28;20271;-65
2021/11/24 01:33:08;;;;;;;17.90;11.27;;;;;;;;;;5074603;28;20251;-65
2021/11/24 01:35:43;;;;;;;17.40;11.68;;;;;;;;;;5074833;28;20277;-65
2021/11/24 01:38:13;;;;;;;21.10;13.88;;;;;;;;;;5074160;28;20214;-65
2021/11/24 01:40:41;;;;;;;17.90;11.05;;;;;;;;;;5075002;28;20564;-65
2021/11/24 01:43:09;;;;;;;17.52;13.13;;;;;;;;;;5074356;28;20186;-65
2021/11/24 01:45:38;;;;;;;19.50;11.85;;;;;;;;;;5074795;28;20240;-65
2021/11/24 01:48:09;;;;;;;14.00;10.48;;;;;;;;;;5073771;28;20217;-66
2021/11/24 01:50:38;;;;;;;15.95;11.45;;;;;;;;;;5075019;28;20277;-65
2021/11/24 01:53:06;;;;;;;15.45;10.50;;;;;;;;;;5074268;28;20183;-65
2021/11/24 01:55:34;;;;;;;17.10;11.07;;;;;;;;;;5073964;28;20250;-65
2021/11/24 01:58:05;;;;;;;13.45;10.60;;;;;;;;;;5074526;28;20243;-65
2021/11/24 02:00:35;;;;;;;14.75;9.93;;;;;;;;;;5074243;28;20243;-65
2021/11/24 02:03:05;;;;;;;13.05;9.68;;;;;;;;;;5074498;28;20200;-65
2021/11/24 02:05:33;;;;;;;14.75;10.20;;;;;;;;;;5074328;28;20201;-65
2021/11/24 02:08:01;;;;;;;13.88;10.18;;;;;;;;;;5074310;28;20190;-65
2021/11/24 02:10:28;;;;;;;16.38;10.70;;;;;;;;;;5073687;28;20219;-66
2021/11/24 02:12:56;;;;;;;14.43;9.50;;;;;;;;;;5074172;28;20244;-65
2021/11/24 02:15:28;;;;;;;14.57;10.52;;;;;;;;;;5074067;28;20218;-66
2021/11/24 02:18:02;;;;;;;15.00;9.88;;;;;;;;;;5073946;28;20277;-66
2021/11/24 02:20:41;;;;;;;13.50;9.95;;;;;;;;;;5073740;28;20189;-65
2021/11/24 02:23:10;;;;;;;13.20;9.60;;;;;;;;;;5074076;28;20202;-66
2021/11/24 02:25:38;;;;;;;14.70;10.38;;;;;;;;;;5073470;28;20208;-65
2021/11/24 02:28:07;;;;;;;15.15;9.32;;;;;;;;;;5073820;28;20229;-66
2021/11/24 02:30:37;;;;;;;16.65;10.90;;;;;;;;;;5073650;28;20190;-65
2021/11/24 02:33:05;;;;;;;13.27;9.20;;;;;;;;;;5073645;28;20319;-65
2021/11/24 02:35:33;;;;;;;16.90;10.68;;;;;;;;;;5073382;28;20197;-65
2021/11/24 02:38:03;;;;;;;14.63;9.55;;;;;;;;;;5074023;28;20563;-65
2021/11/24 02:40:32;;;;;;;13.07;9.38;;;;;;;;;;5073385;28;20189;-65
2021/11/24 02:43:00;;;;;;;14.48;9.73;;;;;;;;;;5073636;28;20244;-66
2021/11/24 02:45:32;;;;;;;14.00;9.80;;;;;;;;;;5073267;28;20186;-65
2021/11/24 02:48:03;;;;;;;16.70;10.88;;;;;;;;;;5073248;28;20190;-65
2021/11/24 02:50:31;;;;;;;16.48;10.60;;;;;;;;;;5073036;28;20653;-65
2021/11/24 02:53:01;;;;;;;13.80;9.15;;;;;;;;;;5073612;28;20666;-65
2021/11/24 02:55:33;;;;;;;15.70;10.48;;;;;;;;;;5073123;28;20255;-65
2021/11/24 02:58:01;;;;;;;12.88;8.77;;;;;;;;;;5073574;28;20212;-66
2021/11/24 03:00:33;;;;;;;15.52;9.65;;;;;;;;;;5072817;28;20191;-65
2021/11/24 03:03:00;;;;;;;17.10;10.45;;;;;;;;;;5073208;28;20191;-65
2021/11/24 03:05:29;;;;;;;14.27;9.85;;;;;;;;;;5073009;28;20186;-65
2021/11/24 03:08:00;;;;;;;12.80;9.02;;;;;;;;;;5073097;28;20236;-66
2021/11/24 03:10:28;;;;;;;13.52;9.63;;;;;;;;;;5072822;28;20707;-69
2021/11/24 03:12:57;;;;;;;14.95;10.68;;;;;;;;;;5072902;28;20318;-65
2021/11/24 03:15:24;;;;;;;12.52;9.20;;;;;;;;;;5070352;28;20222;-65
2021/11/24 03:17:58;;;;;;;13.20;9.48;;;;;;;;;;5052966;28;20237;-65
2021/11/24 03:20:39;;;;;;;15.57;9.60;;;;;;;;;;5053381;28;20719;-65
2021/11/24 03:23:08;;;;;;;11.40;8.40;;;;;;;;;;5071872;28;20543;-65
2021/11/24 03:25:37;;;;;;;15.27;9.55;;;;;;;;;;5072477;28;20182;-65
2021/11/24 03:28:07;;;;;;;13.32;9.18;;;;;;;;;;5072533;28;20186;-65
2021/11/24 03:30:35;;;;;;;14.63;10.10;;;;;;;;;;5072236;28;20225;-65
2021/11/24 03:33:06;;;;;;;15.00;10.27;;;;;;;;;;5072856;28;20555;-65
2021/11/24 03:35:37;;;;;;;16.27;9.65;;;;;;;;;;5072520;28;20194;-65
2021/11/24 03:38:05;;;;;;;13.85;9.70;;;;;;;;;;5072654;28;20194;-65
2021/11/24 03:40:35;;;;;;;14.00;9.68;;;;;;;;;;5072090;28;20194;-65
2021/11/24 03:43:07;;;;;;;16.42;11.15;;;;;;;;;;5072280;28;20196;-66
2021/11/24 03:45:35;;;;;;;13.85;8.75;;;;;;;;;;5068288;28;20186;-65
2021/11/24 03:48:05;;;;;;;13.90;9.70;;;;;;;;;;5072021;28;20195;-65
2021/11/24 03:50:33;;;;;;;13.35;9.43;;;;;;;;;;5072616;28;20221;-65
2021/11/24 03:53:01;;;;;;;14.38;10.23;;;;;;;;;;5072124;28;20193;-65
2021/11/24 03:55:31;;;;;;;14.98;11.27;;;;;;;;;;5072073;28;20190;-66
2021/11/24 03:57:59;;;;;;;12.32;8.23;;;;;;;;;;5072264;28;20194;-65
2021/11/24 04:00:28;;;;;;;12.50;9.05;;;;;;;;;;5072442;28;20222;-65
2021/11/24 04:02:56;;;;;;;14.10;9.13;;;;;;;;;;5071787;28;20189;-65
2021/11/24 04:05:24;;;;;;;13.00;9.82;;;;;;;;;;5072669;28;20190;-65
2021/11/24 04:07:54;;;;;;;13.27;9.18;;;;;;;;;;5072350;28;20266;-64
2021/11/24 04:10:23;;;;;;;14.23;10.18;;;;;;;;;;5072514;28;20692;-65
2021/11/24 04:12:51;;;;;;;13.57;8.60;;;;;;;;;;5072140;28;20186;-65
2021/11/24 04:15:21;;;;;;;15.35;9.48;;;;;;;;;;5072218;28;20230;-66
2021/11/24 04:17:51;;;;;;;12.07;8.93;;;;;;;;;;5072101;28;20213;-65
2021/11/24 04:20:21;;;;;;;18.10;8.65;;;;;;;;;;5072554;28;20727;-65
2021/11/24 04:22:56;;;;;;;18.30;10.38;;;;;;;;;;5072193;28;20646;-66
2021/11/24 04:25:23;;;;;;;16.92;10.40;;;;;;;;;;5072097;28;20182;-65
2021/11/24 04:27:52;;;;;;;18.13;11.52;;;;;;;;;;5072275;28;20187;-66
2021/11/24 04:30:20;;;;;;;13.05;10.05;;;;;;;;;;5072440;28;20252;-65
2021/11/24 04:32:51;;;;;;;14.52;9.23;;;;;;;;;;5071871;28;20202;-65
2021/11/24 04:35:19;;;;;;;12.27;8.35;;;;;;;;;;5072315;28;20194;-65
2021/11/24 04:37:47;;;;;;;13.27;9.10;;;;;;;;;;5071994;28;20195;-65
2021/11/24 04:40:17;;;;;;;16.45;9.30;;;;;;;;;;5073994;28;20653;-65
2021/11/24 04:42:46;;;;;;;14.55;10.30;;;;;;;;;;5075731;28;20269;-67
2021/11/24 04:45:13;;;;;;;13.15;8.80;;;;;;;;;;5076163;28;20198;-65
2021/11/24 04:47:41;;;;;;;15.23;9.75;;;;;;;;;;5075715;28;20236;-65
2021/11/24 04:50:12;;;;;;;16.40;10.23;;;;;;;;;;5075674;28;20336;-65
2021/11/24 04:52:40;;;;;;;13.63;9.10;;;;;;;;;;5075960;28;20651;-65
2021/11/24 04:55:09;;;;;;;13.45;9.43;;;;;;;;;;5076093;28;20255;-65
2021/11/24 04:57:39;;;;;;;12.80;8.70;;;;;;;;;;5075109;28;20277;-65
2021/11/24 05:00:18;;;;;;;12.27;8.75;;;;;;;;;;5075892;28;20661;-66
2021/11/24 05:02:46;;;;;;;13.82;8.80;;;;;;;;;;5075717;28;20235;-65
2021/11/24 05:05:16;;;;;;;11.90;8.48;;;;;;;;;;5076055;28;20247;-65
2021/11/24 05:07:47;;;;;;;11.73;8.25;;;;;;;;;;5075178;28;20268;-65
2021/11/24 05:10:18;;;;;;;14.43;10.10;;;;;;;;;;5075480;28;20255;-65
2021/11/24 05:12:48;;;;;;;15.93;9.75;;;;;;;;;;5075451;28;20197;-65
2021/11/24 05:15:19;;;;;;;11.75;8.73;;;;;;;;;;5075703;28;20225;-65
2021/11/24 05:17:51;;;;;;;15.77;9.63;;;;;;;;;;5075267;28;20548;-65
2021/11/24 05:20:23;;;;;;;17.67;9.55;;;;;;;;;;5075690;28;20190;-65
2021/11/24 05:22:52;;;;;;;12.82;8.50;;;;;;;;;;5070396;28;20188;-66
2021/11/24 05:25:23;;;;;;;12.38;7.15;;;;;;;;;;5075532;28;20542;-65
2021/11/24 05:27:55;;;;;;;11.73;8.35;;;;;;;;;;5075638;28;20194;-65
2021/11/24 05:30:23;;;;;;;12.60;9.18;;;;;;;;;;5074667;28;20560;-66
2021/11/24 05:32:51;;;;;;;12.57;8.32;;;;;;;;;;5075285;28;20187;-66
2021/11/24 05:35:21;;;;;;;15.93;9.15;;;;;;;;;;5075176;28;20280;-66
2021/11/24 05:37:54;;;;;;;12.45;9.20;;;;;;;;;;5075279;28;20193;-65
2021/11/24 05:40:24;;;;;;;13.23;8.32;;;;;;;;;;5074533;28;20206;-66
2021/11/24 05:42:53;;;;;;;11.75;8.55;;;;;;;;;;5074725;28;20187;-66
2021/11/24 05:45:37;;;;;;;11.70;7.70;;;;;;;;;;5074934;28;20187;-66
2021/11/24 05:48:08;;;;;;;14.32;9.13;;;;;;;;;;5074981;28;20194;-65
2021/11/24 05:50:37;;;;;;;14.20;8.80;;;;;;;;;;5074192;28;20206;-65
2021/11/24 05:53:07;;;;;;;14.35;9.05;;;;;;;;;;5073801;28;20273;-66
2021/11/24 05:55:36;;;;;;;13.85;8.85;;;;;;;;;;5074808;28;20197;-65
2021/11/24 05:58:04;;;;;;;14.00;9.73;;;;;;;;;;5073468;28;20190;-65
2021/11/24 06:00:34;;;;;;;11.20;8.63;;;;;;;;;;5074248;28;20198;-65
2021/11/24 06:03:02;;;;;;;14.45;10.15;;;;;;;;;;5074661;28;20548;-65
2021/11/24 06:05:29;;;;;;;11.75;8.32;;;;;;;;;;5074242;28;20237;-66
2021/11/24 06:08:00;;;;;;;12.40;8.25;;;;;;;;;;5074708;28;20221;-65
2021/11/24 06:10:28;;;;;;;11.68;7.63;;;;;;;;;;5070791;28;20301;-66
2021/11/24 06:12:57;;;;;;;15.75;8.80;;;;;;;;;;5054479;28;20191;-66
2021/11/24 06:15:29;;;;;;;13.35;8.77;;;;;;;;;;5067698;28;20218;-65
2021/11/24 06:17:57;;;;;;;13.93;9.65;;;;;;;;;;5055859;28;20190;-65
2021/11/24 06:20:28;;;;;;;11.18;7.80;;;;;;;;;;5056670;28;20714;-66
2021/11/24 06:22:58;;;;;;;14.73;9.00;;;;;;;;;;5060602;28;20541;-65
2021/11/24 06:25:27;;;;;;;12.07;8.48;;;;;;;;;;5056279;28;20274;-65
2021/11/24 06:28:00;;;;;;;13.52;8.95;;;;;;;;;;5054457;28;20301;-65
2021/11/24 06:30:27;;;;;;;15.93;8.40;;;;;;;;;;5067879;28;20202;-65
2021/11/24 06:32:55;;;;;;;13.48;8.90;;;;;;;;;;5071560;28;20311;-65
2021/11/24 06:35:23;;;;;;;14.27;8.70;;;;;;;;;;5070638;28;20232;-66
2021/11/24 06:37:53;;;;;;;14.30;9.95;;;;;;;;;;5067661;28;20561;-66
2021/11/24 06:40:20;;;;;;;13.10;9.55;;;;;;;;;;5068099;28;20194;-65
2021/11/24 06:42:51;;;;;;;12.90;8.50;;;;;;;;;;5053534;28;20191;-65
2021/11/24 06:45:26;;;;;;;11.63;7.72;;;;;;;;;;5060710;28;20179;-65
2021/11/24 06:47:56;;;;;;;10.95;7.50;;;;;;;;;;5053419;28;20197;-65
2021/11/24 06:50:30;;;;;;;12.40;8.95;;;;;;;;;;5053114;28;20673;-66
2021/11/24 06:52:58;;;;;;;11.55;7.55;;;;;;;;;;5053256;28;20244;-65
2021/11/24 06:55:27;;;;;;;13.30;9.35;;;;;;;;;;5054047;28;20650;-65
2021/11/24 06:57:57;;;;;;;15.40;8.75;;;;;;;;;;5059792;28;20190;-65
2021/11/24 07:00:26;;;;;;;11.93;8.07;;;;;;;;;;5068294;28;20183;-65
2021/11/24 07:03:00;;;;;;;12.02;8.38;;;;;;;;;;5052401;28;20210;-65
2021/11/24 07:05:28;;;;;;;12.40;8.57;;;;;;;;;;5062726;28;20179;-65
2021/11/24 07:07:55;;;;;;;13.45;7.97;;;;;;;;;;5062913;28;20187;-66
2021/11/24 07:10:23;;;;;;;12.38;8.70;;;;;;;;;;5070833;28;20696;-65
2021/11/24 07:12:52;;;;;;;9.20;7.43;;;;;;;;;;5065369;28;20190;-65
2021/11/24 07:15:21;;;;;;;11.18;7.30;;;;;;;;;;5054769;28;20272;-65
2021/11/24 07:17:51;;;;;;;11.13;7.60;;;;;;;;;;5052608;28;20187;-66
2021/11/24 07:20:19;;;;;;;13.40;7.80;;;;;;;;;;5052603;28;20244;-66
2021/11/24 07:22:47;;;;;;;12.63;7.63;;;;;;;;;;5060089;28;20206;-65
2021/11/24 07:25:15;;;;;;;10.77;8.05;;;;;;;;;;5052694;28;20257;-65
2021/11/24 07:27:43;;;;;;;10.38;7.10;;;;;;;;;;5052673;28;20230;-65
2021/11/24 07:30:10;;;;;;;12.45;8.55;;;;;;;;;;5056932;28;20240;-65
2021/11/24 07:32:39;;;;;;;13.82;9.73;;;;;;;;;;5070371;28;20649;-65
2021/11/24 07:35:08;;;;;;;13.50;9.40;;;;;;;;;;5070282;28;20606;-65
2021/11/24 07:37:35;;;;;;;13.32;8.95;;;;;;;;;;5067960;28;20187;-65
2021/11/24 07:40:02;;;;;;;12.50;8.23;;;;;;;;;;5070451;28;20557;-65
2021/11/24 07:42:30;;;;;;;10.20;7.75;;;;;;;;;;5059419;28;20214;-65
2021/11/24 07:44:57;;;;;;;12.77;8.20;;;;;;;;;;5052402;28;20245;-65
2021/11/24 07:47:24;;;;;;;9.98;7.82;;;;;;;;;;5053657;28;20183;-66
2021/11/24 07:49:53;;;;;;;11.63;8.20;;;;;;;;;;5052473;28;20214;-66
2021/11/24 07:52:20;;;;;;;8.27;6.45;;;;;;;;;;5061310;28;20218;-65
2021/11/24 07:54:48;;;;;;;12.68;7.28;;;;;;;;;;5070665;28;20190;-66
2021/11/24 07:57:17;;;;;;;12.35;8.57;;;;;;;;;;5060776;28;20218;-65
2021/11/24 07:59:44;;;;;;;13.00;7.32;;;;;;;;;;5053559;28;20234;-65
2021/11/24 08:02:12;;;;;;;15.38;7.03;;;;;;;;;;5053588;28;20245;-65
2021/11/24 08:04:41;;;;;;;11.52;6.80;;;;;;;;;;5055846;28;20568;-66
2021/11/24 08:07:12;;;;;;;9.15;6.18;;;;;;;;;;5066396;28;20314;-65
2021/11/24 08:09:39;;;;;;;10.73;8.18;;;;;;;;;;5061352;28;20206;-65
2021/11/24 08:12:09;;;;;;;11.60;7.28;;;;;;;;;;5051733;28;20191;-66
2021/11/24 08:14:36;;;;;;;10.88;7.00;;;;;;;;;;5053444;28;20214;-65
2021/11/24 08:17:04;;;;;;;10.50;6.90;;;;;;;;;;5058497;28;20202;-65
2021/11/24 08:19:32;;;;;;;8.52;5.82;;;;;;;;;;5069914;28;20200;-65
2021/11/24 08:21:59;;;;;;;13.38;8.52;;;;;;;;;;5075787;28;20186;-68
2021/11/24 08:24:29;;;;;;;10.25;7.30;;;;;;;;;;5075989;28;20239;-65
2021/11/24 08:26:56;;;;;;;9.63;6.60;;;;;;;;;;5076339;28;20215;-65
2021/11/24 08:29:26;;;;;;;10.07;6.97;;;;;;;;;;5075758;28;20200;-66
2021/11/24 08:31:53;;;;;;;9.90;6.47;;;;;;;;;;5075895;28;20575;-65
2021/11/24 08:34:25;;;;;;;10.75;7.20;;;;;;;;;;5075969;28;20627;-66
2021/11/24 08:37:01;;;;;;;11.85;7.53;;;;;;;;;;5075989;28;20219;-66
2021/11/24 08:39:30;;;;;;;9.23;6.20;;;;;;;;;;5060667;28;20617;-65
2021/11/24 08:42:08;;;;;;;7.85;5.80;;;;;;;;;;5060209;28;20198;-66
2021/11/24 08:44:38;;;;;;;8.85;5.72;;;;;;;;;;5069808;28;20194;-65
2021/11/24 08:47:06;;;;;;;8.85;6.47;;;;;;;;;;5073082;28;20285;-66
2021/11/24 08:49:43;;;;;;;8.63;5.65;;;;;;;;;;5068847;28;20190;-66
2021/11/24 08:52:11;;;;;;;10.10;7.93;;;;;;;;;;5072325;28;20237;-66
2021/11/24 08:54:41;;;;;;;10.10;6.75;;;;;;;;;;5072255;28;20198;-65
2021/11/24 08:57:11;;;;;;;11.30;7.75;;;;;;;;;;5070340;28;20668;-65
2021/11/24 08:59:41;;;;;;;9.65;6.93;;;;;;;;;;5071741;28;20283;-65
2021/11/24 09:02:15;;;;;;;10.50;6.85;;;;;;;;;;5072559;28;20190;-65
2021/11/24 09:04:49;;;;;;;10.10;7.00;;;;;;;;;;5064648;28;20194;-65
2021/11/24 09:07:16;;;;;;;9.30;7.00;;;;;;;;;;5069648;28;20190;-65
2021/11/24 09:09:49;;;;;;;12.00;7.38;;;;;;;;;;5069701;28;20201;-66
2021/11/24 09:12:17;;;;;;;10.82;6.63;;;;;;;;;;5068303;28;20233;-65
2021/11/24 09:14:45;;;;;;;10.10;6.85;;;;;;;;;;5073896;28;20225;-65
2021/11/24 09:17:13;;;;;;;8.05;6.60;;;;;;;;;;5068891;28;20667;-65
2021/11/24 09:19:45;;;;;;;9.70;6.70;;;;;;;;;;5067760;28;20652;-65
2021/11/24 09:22:13;;;;;;;8.90;6.35;;;;;;;;;;5069247;28;20274;-65
2021/11/24 09:24:41;;;;;;;9.40;7.53;;;;;;;;;;5067361;28;20190;-66
2021/11/24 09:27:16;;;;;;;10.35;6.40;;;;;;;;;;5064890;28;20206;-65
2021/11/24 09:29:47;;;;;;;11.07;7.57;;;;;;;;;;5065448;28;20291;-66
2021/11/24 09:32:16;;;;;;;8.30;5.53;;;;;;;;;;5065525;28;20588;-66
2021/11/24 09:34:44;;;;;;;9.15;6.00;;;;;;;;;;5067323;28;20281;-65
2021/11/24 09:37:14;;;;;;;9.90;7.38;;;;;;;;;;5070183;28;20194;-65
2021/11/24 09:39:53;;;;;;;10.07;6.70;;;;;;;;;;5065499;28;20201;-66
2021/11/24 09:42:26;;;;;;;9.75;6.35;;;;;;;;;;5064800;28;20187;-65
2021/11/24 09:44:58;;;;;;;8.70;6.55;;;;;;;;;;5065815;28;20631;-66
2021/11/24 09:47:29;;;;;;;9.40;6.05;;;;;;;;;;5064205;28;20198;-65
2021/11/24 09:49:58;;;;;;;8.73;6.18;;;;;;;;;;5067532;28;20194;-66
2021/11/24 09:52:31;;;;;;;8.65;6.25;;;;;;;;;;5065312;28;20222;-66
2021/11/24 09:55:01;;;;;;;9.05;5.68;;;;;;;;;;5069609;28;20307;-65
2021/11/24 09:57:33;;;;;;;9.10;6.45;;;;;;;;;;5071140;28;20190;-65
2021/11/24 10:00:00;;;;;;;9.50;6.97;;;;;;;;;;5058091;28;20201;-66
2021/11/24 10:02:28;;;;;;;7.53;5.50;;;;;;;;;;5058475;28;20281;-65
2021/11/24 10:05:00;;;;;;;9.65;6.45;;;;;;;;;;5070000;28;20282;-68
2021/11/24 10:07:28;;;;;;;8.07;6.40;;;;;;;;;;5065913;28;20277;-66
2021/11/24 10:10:10;;;;;;;8.27;5.85;;;;;;;;;;5061846;28;20244;-65
2021/11/24 10:12:39;;;;;;;9.20;5.28;;;;;;;;;;5068088;28;20222;-65
2021/11/24 10:15:13;;;;;;;8.05;5.63;;;;;;;;;;5051634;28;20241;-66
2021/11/24 10:17:54;;;;;;;7.18;5.15;;;;;;;;;;5048570;28;20203;-65
2021/11/24 10:20:25;;;;;;;8.77;5.90;;;;;;;;;;5050870;28;20194;-66
2021/11/24 10:22:58;;;;;;;8.18;5.40;;;;;;;;;;5048325;28;20336;-66
2021/11/24 10:25:28;;;;;;;11.63;6.80;;;;;;;;;;5048573;28;20674;-66
2021/11/24 10:28:02;;;;;;;8.35;6.20;;;;;;;;;;5051983;28;20757;-66
2021/11/24 10:30:46;;;;;;;7.88;5.07;;;;;;;;;;5047198;28;20206;-66
2021/11/24 10:33:20;;;;;;;7.72;5.82;;;;;;;;;;5049518;28;20612;-66
2021/11/24 10:36:27;;;;;;;9.13;5.82;;;;;;;;;;5047363;28;20198;-66
2021/11/24 10:38:59;;;;;;;7.88;6.13;;;;;;;;;;5049296;28;20202;-66
2021/11/24 10:41:28;;;;;;;8.07;5.43;;;;;;;;;;5047330;28;20202;-66
2021/11/24 10:43:57;;;;;;;7.70;6.00;;;;;;;;;;5049704;28;20198;-67
2021/11/24 10:46:41;;;;;;;7.70;4.78;;;;;;;;;;5047255;28;20681;-66
2021/11/24 10:49:11;;;;;;;8.30;5.10;;;;;;;;;;5047822;28;20316;-66
2021/11/24 10:51:50;;;;;;;7.90;5.78;;;;;;;;;;5047336;28;20215;-66
2021/11/24 10:54:39;;;;;;;9.43;5.60;;;;;;;;;;5049446;28;20198;-66
2021/11/24 10:57:13;;;;;;;7.57;4.35;;;;;;;;;;5049072;28;20280;-66
2021/11/24 10:59:47;;;;;;;9.30;5.18;;;;;;;;;;5048696;28;20191;-66
2021/11/24 11:02:24;;;;;;;6.68;4.55;;;;;;;;;;5049023;28;20193;-66
2021/11/24 11:05:02;;;;;;;7.93;5.25;;;;;;;;;;5049438;28;20225;-66
2021/11/24 11:07:31;;;;;;;8.15;5.53;;;;;;;;;;5048753;28;20203;-66
2021/11/24 11:10:07;;;;;;;8.10;6.30;;;;;;;;;;5048262;28;20214;-66
2021/11/24 11:12:35;;;;;;;10.10;6.10;;;;;;;;;;5047370;28;20225;-66
2021/11/24 11:15:29;;;;;;;9.57;5.80;;;;;;;;;;5045334;28;20229;-65
2021/11/24 11:18:07;;;;;;;7.75;5.65;;;;;;;;;;5012622;28;20260;-66
2021/11/24 11:20:45;;;;;;;9.32;6.15;;;;;;;;;;5049219;28;20215;-66
2021/11/24 11:23:21;;;;;;;6.80;4.60;;;;;;;;;;5047983;28;20198;-65
2021/11/24 11:26:07;;;;;;;8.02;5.18;;;;;;;;;;5047129;28;20191;-67
2021/11/24 11:28:35;;;;;;;8.93;5.32;;;;;;;;;;5046541;28;20233;-66
2021/11/24 11:31:06;;;;;;;6.32;5.50;;;;;;;;;;5048481;28;20313;-65
2021/11/24 11:33:39;;;;;;;8.00;5.78;;;;;;;;;;5047046;28;20203;-66
2021/11/24 11:36:11;;;;;;;6.50;4.40;;;;;;;;;;5046626;28;20247;-65
2021/11/24 11:38:39;;;;;;;8.40;6.50;;;;;;;;;;5044906;28;20194;-66
2021/11/24 11:41:07;;;;;;;8.13;6.68;;;;;;;;;;5049210;28;20289;-66
2021/11/24 11:43:35;;;;;;;8.30;5.03;;;;;;;;;;5046781;28;20280;-66
2021/11/24 11:46:14;;;;;;;6.82;5.38;;;;;;;;;;5047183;28;20256;-66
2021/11/24 11:48:43;;;;;;;8.27;5.35;;;;;;;;;;5048884;28;20256;-66
2021/11/24 11:51:11;;;;;;;8.73;6.88;;;;;;;;;;5048275;28;20677;-66
2021/11/24 11:53:39;;;;;;;7.93;6.07;;;;;;;;;;5049154;28;20202;-66
2021/11/24 11:56:24;;;;;;;8.98;6.40;;;;;;;;;;5047344;28;20567;-66
2021/11/24 11:58:56;;;;;;;8.80;6.35;;;;;;;;;;5039226;28;20661;-66
2021/11/24 12:01:26;;;;;;;10.80;7.13;;;;;;;;;;5048967;28;20201;-66
2021/11/24 12:04:16;;;;;;;8.88;5.70;;;;;;;;;;5046068;28;20198;-67
2021/11/24 12:06:49;;;;;;;8.88;6.38;;;;;;;;;;5042010;28;20202;-66
2021/11/24 12:09:34;;;;;;;8.30;5.78;;;;;;;;;;5047082;28;20293;-66
2021/11/24 12:12:21;;;;;;;9.15;5.97;;;;;;;;;;5048835;28;20336;-66
2021/11/24 12:15:08;;;;;;;8.30;6.10;;;;;;;;;;5046209;28;20257;-66
2021/11/24 12:17:36;;;;;;;9.23;6.38;;;;;;;;;;5047411;28;20222;-66
2021/11/24 12:20:06;;;;;;;8.18;6.30;;;;;;;;;;5048159;28;20778;-66
2021/11/24 12:22:54;;;;;;;10.05;7.07;;;;;;;;;;5048324;28;20282;-66
2021/11/24 12:25:41;;;;;;;9.88;6.53;;;;;;;;;;5046415;28;20352;-66
2021/11/24 12:28:12;;;;;;;10.77;6.80;;;;;;;;;;5046596;28;20194;-66
2021/11/24 12:30:56;;;;;;;7.32;5.47;;;;;;;;;;5047628;28;20194;-66
2021/11/24 12:33:24;;;;;;;10.52;7.43;;;;;;;;;;5036071;28;20252;-66
2021/11/24 12:35:52;;;;;;;10.15;6.97;;;;;;;;;;5046733;28;20277;-66
2021/11/24 12:38:22;;;;;;;8.05;5.93;;;;;;;;;;5049711;28;20747;-66
2021/11/24 12:40:50;;;;;;;9.05;6.47;;;;;;;;;;5046830;28;20313;-65
2021/11/24 12:43:18;;;;;;;10.90;7.65;;;;;;;;;;5047079;28;20202;-67
2021/11/24 12:46:00;;;;;;;10.52;6.45;;;;;;;;;;5047609;28;20195;-66
2021/11/24 12:48:31;;;;;;;10.35;7.20;;;;;;;;;;5048430;28;20195;-67
2021/11/24 12:51:01;;;;;;;11.43;7.55;;;;;;;;;;5047826;28;20858;-66
2021/11/24 12:53:36;;;;;;;12.75;6.80;;;;;;;;;;5047413;28;20222;-66
2021/11/24 12:56:11;;;;;;;10.55;6.80;;;;;;;;;;5047781;28;20664;-65
2021/11/24 12:58:41;;;;;;;9.40;7.65;;;;;;;;;;5045578;28;20599;-66
2021/11/24 13:01:19;;;;;;;9.63;7.47;;;;;;;;;;5046963;28;20198;-66
2021/11/24 13:03:47;;;;;;;9.23;7.03;;;;;;;;;;5051416;28;20581;-66
2021/11/24 13:06:15;;;;;;;11.93;7.53;;;;;;;;;;5051352;28;20202;-67
2021/11/24 13:08:45;;;;;;;10.82;7.07;;;;;;;;;;5051178;28;20217;-68
2021/11/24 13:11:13;;;;;;;12.65;8.95;;;;;;;;;;5049978;28;20191;-66
2021/11/24 13:13:40;;;;;;;15.18;8.10;;;;;;;;;;5049819;28;20330;-67
2021/11/24 13:16:20;;;;;;;9.75;7.05;;;;;;;;;;5049268;28;21153;-66
2021/11/24 13:18:51;;;;;;;9.77;7.00;;;;;;;;;;5052669;28;20305;-67
2021/11/24 13:21:18;;;;;;;11.13;7.95;;;;;;;;;;5049641;28;20247;-66
2021/11/24 13:23:47;;;;;;;10.93;7.30;;;;;;;;;;5051694;28;20274;-66
2021/11/24 13:26:15;;;;;;;11.57;7.60;;;;;;;;;;5050053;28;20619;-66
2021/11/24 13:28:42;;;;;;;9.20;6.90;;;;;;;;;;5052094;28;20194;-66
2021/11/24 13:31:09;;;;;;;10.15;6.85;;;;;;;;;;5051315;28;20226;-67
2021/11/24 13:33:39;;;;;;;9.38;6.40;;;;;;;;;;5051000;28;20322;-66
2021/11/24 13:36:10;;;;;;;9.48;7.03;;;;;;;;;;5049097;28;20194;-66
2021/11/24 13:38:38;;;;;;;10.88;7.43;;;;;;;;;;5050250;28;20186;-66
2021/11/24 13:41:23;;;;;;;11.63;8.27;;;;;;;;;;5049843;28;20276;-67
2021/11/24 13:43:53;;;;;;;10.05;7.10;;;;;;;;;;5023391;28;20274;-66
2021/11/24 13:46:22;;;;;;;12.18;7.57;;;;;;;;;;5048774;28;20319;-66
2021/11/24 13:48:50;;;;;;;11.18;7.30;;;;;;;;;;5051306;28;20202;-66
2021/11/24 13:51:21;;;;;;;10.90;7.43;;;;;;;;;;5049378;28;20707;-65
2021/11/24 13:53:48;;;;;;;10.15;7.90;;;;;;;;;;5051785;28;20272;-66
2021/11/24 13:56:21;;;;;;;12.70;7.38;;;;;;;;;;5049835;28;20206;-66
2021/11/24 13:58:57;;;;;;;10.65;7.72;;;;;;;;;;5050938;28;20546;-66
2021/11/24 14:01:26;;;;;;;11.63;7.65;;;;;;;;;;5050303;28;20255;-66
2021/11/24 14:03:54;;;;;;;14.18;7.00;;;;;;;;;;5050808;28;20323;-65
2021/11/24 14:06:38;;;;;;;12.95;7.72;;;;;;;;;;5048069;28;20285;-67
2021/11/24 14:09:15;;;;;;;13.50;7.25;;;;;;;;;;5050272;28;20248;-66
2021/11/24 14:11:51;;;;;;;10.93;7.70;;;;;;;;;;5049448;28;20202;-66
2021/11/24 14:14:19;;;;;;;12.07;8.20;;;;;;;;;;5049460;28;20315;-65
2021/11/24 14:16:55;;;;;;;10.45;7.13;;;;;;;;;;5048711;28;20203;-66
2021/11/24 14:19:22;;;;;;;11.77;8.25;;;;;;;;;;5048653;28;20626;-65
2021/11/24 14:21:53;;;;;;;13.75;8.90;;;;;;;;;;5050336;28;20202;-66
2021/11/24 14:24:21;;;;;;;11.50;8.52;;;;;;;;;;5049968;28;20291;-66
2021/11/24 14:26:48;;;;;;;15.10;7.10;;;;;;;;;;5048900;28;20280;-67
2021/11/24 14:29:16;;;;;;;11.63;8.43;;;;;;;;;;5050645;28;20272;-67
2021/11/24 14:31:53;;;;;;;20.58;9.27;;;;;;;;;;5050653;28;20259;-66
2021/11/24 14:34:27;;;;;;;17.15;9.48;;;;;;;;;;5048393;28;20202;-65
2021/11/24 14:36:55;;;;;;;17.95;10.43;;;;;;;;;;5048505;28;20767;-66
2021/11/24 14:39:23;;;;;;;14.07;9.43;;;;;;;;;;5049877;28;20195;-66
2021/11/24 14:41:50;;;;;;;11.30;8.32;;;;;;;;;;5047897;28;20541;-66
2021/11/24 14:44:19;;;;;;;14.73;9.27;;;;;;;;;;5049326;28;20229;-66
2021/11/24 14:46:46;;;;;;;13.00;9.48;;;;;;;;;;5047655;28;20207;-66
2021/11/24 14:49:18;;;;;;;11.43;8.55;;;;;;;;;;5050393;28;20226;-67
2021/11/24 14:51:49;;;;;;;11.18;7.05;;;;;;;;;;5049011;28;20198;-66